Time;durP1;ratioP1;P1;durP2;ratioP2;P2;SDS_P1;SDS_P2;PMS_P1;PMS_P2;Temp;Humidity;BMP_temperature;BMP_pressure;BME280_temperature;BME280_humidity;BME280_pressure;Samples;Min_cycle;Max_cycle;Signal;HPM_P1;HPM_P2
2022/02/28 00:00:48;;;;;;;12.33;6.90;;;;;;;-2.20;87.24;101230.36;1741200;82;21286;-75
2022/02/28 00:03:55;;;;;;;9.00;5.42;;;;;;;-2.22;87.41;101232.23;1742644;82;21284;-76
2022/02/28 00:07:01;;;;;;;10.03;5.70;;;;;;;-2.26;87.52;101230.63;1741332;82;21173;-83
2022/02/28 00:10:07;;;;;;;12.55;6.78;;;;;;;-2.32;87.85;101227.77;1741332;82;21732;-83
2022/02/28 00:13:13;;;;;;;10.82;6.50;;;;;;;-2.38;88.25;101231.61;1741463;82;21314;-84
2022/02/28 00:16:20;;;;;;;9.48;6.33;;;;;;;-2.40;88.60;101226.81;1742542;82;21290;-76
2022/02/28 00:19:26;;;;;;;11.78;6.95;;;;;;;-2.39;88.80;101231.69;1735751;81;21176;-84
2022/02/28 00:22:33;;;;;;;10.95;7.10;;;;;;;-2.38;88.96;101228.93;1735590;82;21184;-84
2022/02/28 00:25:39;;;;;;;11.00;6.03;;;;;;;-2.35;89.11;101228.80;1737195;82;21165;-83
2022/02/28 00:28:46;;;;;;;11.18;6.67;;;;;;;-2.29;89.13;101222.75;1736946;82;21852;-76
2022/02/28 00:31:52;;;;;;;10.32;6.42;;;;;;;-2.26;89.15;101214.55;1736701;82;21252;-77
2022/02/28 00:34:57;;;;;;;12.15;6.08;;;;;;;-2.21;89.15;101219.22;1737062;82;21209;-77
2022/02/28 00:38:03;;;;;;;9.00;6.33;;;;;;;-2.15;89.17;101220.29;1737055;82;21197;-85
2022/02/28 00:41:09;;;;;;;15.40;6.28;;;;;;;-2.11;89.08;101219.20;1737147;82;21734;-85
2022/02/28 00:44:13;;;;;;;7.03;4.87;;;;;;;-2.10;89.14;101224.48;1737055;82;21298;-77
2022/02/28 00:47:19;;;;;;;8.35;5.87;;;;;;;-2.09;89.52;101225.34;1735727;82;22134;-84
2022/02/28 00:50:25;;;;;;;9.63;5.75;;;;;;;-2.04;89.89;101218.42;1737149;82;21718;-84
2022/02/28 00:53:31;;;;;;;9.15;5.58;;;;;;;-2.00;90.19;101220.88;1735635;82;21216;-76
2022/02/28 00:56:36;;;;;;;9.35;5.70;;;;;;;-1.92;90.46;101223.20;1736893;82;21319;-75
2022/02/28 00:59:43;;;;;;;8.63;5.15;;;;;;;-1.86;90.63;101223.77;1736622;82;21303;-77
2022/02/28 01:02:48;;;;;;;7.10;4.85;;;;;;;-1.80;90.84;101223.93;1736067;82;21245;-76
2022/02/28 01:05:54;;;;;;;15.53;8.58;;;;;;;-1.75;91.02;101212.98;1737092;82;21197;-76
2022/02/28 01:09:00;;;;;;;9.30;6.25;;;;;;;-1.70;91.19;101218.50;1735599;82;21149;-84
2022/02/28 01:12:07;;;;;;;9.73;6.22;;;;;;;-1.66;91.33;101216.55;1736487;82;21311;-76
2022/02/28 01:15:13;;;;;;;9.68;6.33;;;;;;;-1.63;91.40;101223.11;1735645;82;21304;-83
2022/02/28 01:18:20;;;;;;;9.33;6.42;;;;;;;-1.59;91.53;101214.83;1735580;81;21200;-75
2022/02/28 01:21:25;;;;;;;8.50;5.90;;;;;;;-1.56;91.62;101214.66;1735694;82;21145;-76
2022/02/28 01:24:30;;;;;;;9.55;6.03;;;;;;;-1.50;91.66;101209.95;1735625;82;21310;-75
2022/02/28 01:27:36;;;;;;;9.80;6.50;;;;;;;-1.47;91.71;101217.83;1736215;82;21311;-82
2022/02/28 01:30:44;;;;;;;10.80;5.42;;;;;;;-1.45;91.74;101210.59;1735560;82;21320;-83
2022/02/28 01:33:50;;;;;;;9.53;6.53;;;;;;;-1.42;91.75;101209.07;1737016;82;21145;-78
2022/02/28 01:36:55;;;;;;;8.68;5.42;;;;;;;-1.37;91.71;101210.56;1735695;82;21283;-76
2022/02/28 01:40:00;;;;;;;8.35;5.40;;;;;;;-1.33;91.70;101217.52;1735638;82;21794;-83
2022/02/28 01:43:06;;;;;;;12.28;6.37;;;;;;;-1.27;91.59;101216.81;1735912;82;21907;-76
2022/02/28 01:46:12;;;;;;;9.15;6.20;;;;;;;-1.22;91.51;101214.31;1737016;82;21172;-76
2022/02/28 01:49:18;;;;;;;13.13;6.25;;;;;;;-1.15;91.43;101214.84;1735835;82;21697;-83
2022/02/28 01:52:24;;;;;;;9.93;6.25;;;;;;;-1.10;91.26;101216.81;1736497;82;21840;-83
2022/02/28 01:55:31;;;;;;;14.45;7.60;;;;;;;-1.08;91.09;101207.75;1737122;82;21271;-80
2022/02/28 01:58:44;;;;;;;8.98;5.65;;;;;;;-1.04;90.84;101215.14;1737121;82;21340;-83
2022/02/28 02:01:50;;;;;;;7.37;5.62;;;;;;;-1.02;90.64;101209.23;1736788;82;21327;-76
2022/02/28 02:04:56;;;;;;;7.30;5.25;;;;;;;-0.99;90.54;101219.80;1737012;82;21263;-83
2022/02/28 02:08:01;;;;;;;7.50;5.58;;;;;;;-0.95;90.17;101211.98;1736994;82;21302;-82
2022/02/28 02:11:07;;;;;;;7.28;5.10;;;;;;;-0.91;89.74;101212.69;1737103;82;21295;-83
2022/02/28 02:14:13;;;;;;;8.80;5.92;;;;;;;-0.86;89.30;101211.49;1737178;82;21272;-83
2022/02/28 02:17:19;;;;;;;9.43;5.08;;;;;;;-0.84;87.79;101204.72;1737026;82;21733;-76
2022/02/28 02:20:32;;;;;;;9.25;6.45;;;;;;;-0.79;86.75;101195.94;1736464;81;21192;-75
2022/02/28 02:23:38;;;;;;;6.37;4.92;;;;;;;-0.75;85.70;101192.58;1736125;82;21848;-77
2022/02/28 02:26:44;;;;;;;8.03;5.33;;;;;;;-0.69;85.45;101190.94;1736739;82;21186;-83
2022/02/28 02:29:51;;;;;;;7.92;5.50;;;;;;;-0.66;85.31;101193.44;1737035;82;21279;-85
2022/02/28 02:32:57;;;;;;;8.65;5.67;;;;;;;-0.65;85.31;101185.79;1736015;82;21330;-83
2022/02/28 02:36:04;;;;;;;8.88;5.17;;;;;;;-0.62;85.17;101185.60;1737014;82;21794;-83
2022/02/28 02:39:12;;;;;;;6.95;5.28;;;;;;;-0.60;85.32;101183.72;1735919;82;21303;-76
2022/02/28 02:42:17;;;;;;;7.65;5.40;;;;;;;-0.55;85.18;101185.67;1735468;82;21215;-84
2022/02/28 02:45:23;;;;;;;6.45;4.53;;;;;;;-0.53;85.00;101186.44;1737031;82;21295;-75
2022/02/28 02:48:31;;;;;;;8.10;5.20;;;;;;;-0.51;84.84;101187.25;1735670;82;21844;-76
2022/02/28 02:51:37;;;;;;;7.97;5.30;;;;;;;-0.49;84.42;101192.05;1736504;82;21307;-83
2022/02/28 02:54:42;;;;;;;5.55;4.65;;;;;;;-0.47;83.80;101185.23;1736472;82;21279;-75
2022/02/28 02:57:50;;;;;;;5.28;4.55;;;;;;;-0.47;83.61;101184.78;1735548;82;21311;-83
2022/02/28 03:01:00;;;;;;;6.35;5.03;;;;;;;-0.46;83.72;101185.17;1736986;82;21264;-76
2022/02/28 03:04:06;;;;;;;7.78;4.25;;;;;;;-0.43;83.70;101178.73;1736919;82;21810;-76
2022/02/28 03:07:25;;;;;;;6.97;5.08;;;;;;;-0.41;83.86;101181.75;1735759;82;21350;-76
2022/02/28 03:10:30;;;;;;;12.18;6.28;;;;;;;-0.40;83.45;101174.55;1736976;82;21288;-75
2022/02/28 03:13:35;;;;;;;7.00;5.37;;;;;;;-0.42;82.61;101165.23;1735519;82;21216;-82
2022/02/28 03:16:41;;;;;;;6.25;5.05;;;;;;;-0.43;82.71;101158.10;1736729;82;21318;-76
2022/02/28 03:19:46;;;;;;;7.17;4.25;;;;;;;-0.46;82.60;101160.12;1736959;82;21331;-76
2022/02/28 03:22:55;;;;;;;5.28;4.03;;;;;;;-0.45;81.52;101149.27;1735626;81;21176;-83
2022/02/28 03:26:00;;;;;;;6.83;4.55;;;;;;;-0.44;81.23;101159.06;1736833;82;21832;-83
2022/02/28 03:29:06;;;;;;;8.05;4.80;;;;;;;-0.44;80.87;101165.78;1737030;82;21324;-77
2022/02/28 03:32:14;;;;;;;9.43;5.25;;;;;;;-0.43;81.41;101166.64;1735560;82;21232;-80
2022/02/28 03:35:20;;;;;;;9.13;5.87;;;;;;;-0.44;82.17;101160.41;1736982;82;21868;-76
2022/02/28 03:38:25;;;;;;;9.45;5.70;;;;;;;-0.45;82.86;101168.08;1735647;82;21367;-76
2022/02/28 03:41:30;;;;;;;9.33;5.72;;;;;;;-0.49;83.43;101170.55;1736985;82;21188;-75
2022/02/28 03:44:35;;;;;;;7.90;6.05;;;;;;;-0.52;84.02;101157.27;1737195;82;21300;-82
2022/02/28 03:47:40;;;;;;;10.40;6.37;;;;;;;-0.56;84.56;101153.05;1737045;82;21302;-75
2022/02/28 03:50:51;;;;;;;10.32;5.83;;;;;;;-0.60;84.89;101153.68;1737044;82;21272;-80
2022/02/28 03:53:58;;;;;;;13.00;6.80;;;;;;;-0.63;85.32;101151.63;1735693;82;21228;-83
2022/02/28 03:57:06;;;;;;;9.75;6.30;;;;;;;-0.66;85.68;101153.13;1736555;82;21216;-83
2022/02/28 04:00:13;;;;;;;11.33;6.92;;;;;;;-0.71;85.88;101156.06;1737079;82;21180;-83
2022/02/28 04:03:19;;;;;;;11.65;6.28;;;;;;;-0.75;86.08;101161.69;1736139;82;21216;-84
2022/02/28 04:06:25;;;;;;;12.88;6.75;;;;;;;-0.79;86.32;101162.36;1736977;82;21279;-76
2022/02/28 04:09:36;;;;;;;10.50;6.80;;;;;;;-0.82;86.48;101151.77;1736826;82;21960;-77
2022/02/28 04:12:39;;;;;;;11.60;7.12;;;;;;;-0.87;86.66;101168.13;1736271;82;21836;-84
2022/02/28 04:15:45;;;;;;;10.75;6.47;;;;;;;-0.92;86.66;101169.33;1736987;82;21330;-76
2022/02/28 04:18:50;;;;;;;11.33;6.70;;;;;;;-0.99;86.67;101182.20;1737011;82;21165;-84
2022/02/28 04:22:03;;;;;;;9.73;6.60;;;;;;;-1.08;86.67;101171.98;1735400;81;21180;-76
2022/02/28 04:25:10;;;;;;;9.98;6.70;;;;;;;-1.16;86.80;101173.71;1729810;83;21296;-84
2022/02/28 04:28:18;;;;;;;11.28;7.80;;;;;;;-1.22;86.92;101183.88;1729032;83;21319;-76
2022/02/28 04:31:23;;;;;;;12.50;7.60;;;;;;;-1.33;86.98;101179.08;1730222;83;21267;-76
2022/02/28 04:34:28;;;;;;;12.55;7.20;;;;;;;-1.44;87.17;101186.35;1730256;83;21276;-76
2022/02/28 04:37:33;;;;;;;10.43;6.90;;;;;;;-1.57;87.39;101187.91;1729494;83;21315;-77
2022/02/28 04:40:40;;;;;;;11.97;7.20;;;;;;;-1.67;87.57;101191.53;1729557;83;21291;-84
2022/02/28 04:43:45;;;;;;;11.88;6.72;;;;;;;-1.76;87.96;101195.16;1730430;83;21161;-84
2022/02/28 04:46:50;;;;;;;11.78;7.35;;;;;;;-1.82;88.17;101199.01;1730270;83;21287;-84
2022/02/28 04:50:01;;;;;;;11.63;7.65;;;;;;;-1.86;88.39;101196.08;1730193;83;21277;-76
2022/02/28 04:53:07;;;;;;;11.53;8.05;;;;;;;-1.90;88.61;101198.03;1730193;83;21216;-83
2022/02/28 04:56:14;;;;;;;13.60;7.28;;;;;;;-1.90;88.72;101195.35;1728914;82;21244;-76
2022/02/28 04:59:20;;;;;;;10.72;7.70;;;;;;;-1.92;88.83;101199.94;1730162;83;21288;-76
2022/02/28 05:02:27;;;;;;;12.45;7.72;;;;;;;-1.97;89.03;101200.63;1729482;83;21861;-83
2022/02/28 05:05:40;;;;;;;13.08;7.53;;;;;;;-2.02;89.26;101188.38;1728803;83;21209;-83
2022/02/28 05:08:45;;;;;;;12.05;8.10;;;;;;;-2.03;89.50;101192.87;1730212;83;21371;-83
2022/02/28 05:11:51;;;;;;;14.75;8.05;;;;;;;-2.06;89.66;101192.56;1729159;83;21337;-84
2022/02/28 05:14:56;;;;;;;12.73;9.13;;;;;;;-2.09;89.96;101190.02;1730326;83;21307;-79
2022/02/28 05:18:02;;;;;;;12.23;8.80;;;;;;;-2.09;90.21;101182.45;1730332;83;21321;-84
2022/02/28 05:21:08;;;;;;;14.28;9.13;;;;;;;-2.12;90.53;101187.95;1730294;83;21169;-76
2022/02/28 05:24:14;;;;;;;12.82;8.73;;;;;;;-2.10;90.75;101195.47;1734158;81;21845;-76
2022/02/28 05:27:18;;;;;;;15.58;9.03;;;;;;;-2.10;90.84;101192.31;1736950;82;21798;-84
2022/02/28 05:30:23;;;;;;;14.85;9.80;;;;;;;-2.07;91.10;101188.16;1737103;82;21311;-83
2022/02/28 05:33:30;;;;;;;14.07;8.08;;;;;;;-2.03;91.15;101190.19;1736719;82;21312;-76
2022/02/28 05:36:35;;;;;;;14.28;8.28;;;;;;;-2.01;91.19;101195.02;1736890;82;21322;-84
2022/02/28 05:39:57;;;;;;;19.02;9.33;;;;;;;-1.97;91.04;101194.41;1736871;82;21260;-75
2022/02/28 05:43:02;;;;;;;17.27;9.48;;;;;;;-1.91;90.99;101196.78;1735556;82;21738;-84
2022/02/28 05:46:10;;;;;;;14.07;8.83;;;;;;;-1.85;90.95;101193.31;1735345;82;21347;-75
2022/02/28 05:49:17;;;;;;;13.40;7.87;;;;;;;-1.78;90.85;101191.69;1737424;82;21302;-76
2022/02/28 05:52:24;;;;;;;15.98;8.05;;;;;;;-1.73;90.44;101205.73;1737028;82;21291;-81
2022/02/28 05:55:29;;;;;;;15.10;8.90;;;;;;;-1.71;89.87;101193.10;1737112;82;21224;-79
2022/02/28 05:58:34;;;;;;;15.18;8.73;;;;;;;-1.69;89.78;101184.53;1736969;82;21786;-83
2022/02/28 06:01:41;;;;;;;14.23;8.25;;;;;;;-1.64;89.99;101175.30;1737113;82;21326;-83
2022/02/28 06:04:47;;;;;;;11.65;7.92;;;;;;;-1.57;90.03;101183.89;1737049;82;21161;-75
2022/02/28 06:07:53;;;;;;;13.75;8.60;;;;;;;-1.50;89.09;101186.67;1737019;82;21188;-76
2022/02/28 06:10:51;;;;;;;13.28;7.83;;;;;;;-1.48;88.74;101184.77;1736729;82;21200;-77
2022/02/28 06:13:58;;;;;;;11.65;8.05;;;;;;;-1.43;88.44;101184.05;1735093;82;21197;-83
2022/02/28 06:17:04;;;;;;;15.28;9.83;;;;;;;-1.39;88.26;101178.93;1735592;82;21318;-75
2022/02/28 06:20:12;;;;;;;12.30;7.75;;;;;;;-1.34;88.05;101190.30;1736647;82;21165;-76
2022/02/28 06:23:17;;;;;;;13.95;8.45;;;;;;;-1.26;87.66;101191.25;1725031;83;21204;-83
2022/02/28 06:26:23;;;;;;;13.22;7.30;;;;;;;-1.20;87.19;101188.72;1732841;83;21300;-83
2022/02/28 06:29:28;;;;;;;18.30;8.53;;;;;;;-1.15;86.83;101186.66;1704530;84;21308;-76
2022/02/28 06:32:34;;;;;;;15.10;8.83;;;;;;;-1.10;86.66;101185.94;1705689;82;21748;-77
2022/02/28 06:35:40;;;;;;;11.33;7.28;;;;;;;-1.06;86.31;101188.38;1730687;83;21853;-83
2022/02/28 06:38:45;;;;;;;16.42;8.10;;;;;;;-0.97;86.34;101192.88;1728331;83;21300;-84
2022/02/28 06:41:51;;;;;;;13.45;7.85;;;;;;;-0.88;86.04;101194.60;1728435;81;21945;-84
2022/02/28 06:44:56;;;;;;;14.07;8.48;;;;;;;-0.79;85.69;101195.45;1728998;83;21284;-84
2022/02/28 06:48:02;;;;;;;13.48;7.12;;;;;;;-0.73;85.15;101198.77;1729550;81;21310;-84
2022/02/28 06:51:07;;;;;;;13.10;7.70;;;;;;;-0.67;84.90;101186.33;1723725;83;21315;-78
2022/02/28 06:54:11;;;;;;;12.90;8.13;;;;;;;-0.59;85.09;101184.10;1728342;83;21287;-84
2022/02/28 06:57:18;;;;;;;12.00;7.90;;;;;;;-0.53;84.08;101187.79;1690195;84;21315;-78
2022/02/28 07:00:24;;;;;;;13.60;7.70;;;;;;;-0.51;83.73;101176.50;1730952;83;21284;-77
2022/02/28 07:03:32;;;;;;;12.37;8.05;;;;;;;-0.46;83.41;101187.00;1728023;82;21837;-75
2022/02/28 07:06:39;;;;;;;11.73;7.58;;;;;;;-0.42;83.22;101181.84;1718643;82;21291;-84
2022/02/28 07:09:45;;;;;;;12.65;7.05;;;;;;;-0.34;83.20;101183.61;1731389;82;21283;-76
2022/02/28 07:12:52;;;;;;;15.53;7.92;;;;;;;-0.27;82.77;101169.75;1726238;83;21334;-83
2022/02/28 07:15:57;;;;;;;14.43;8.55;;;;;;;-0.18;82.43;101175.57;1688312;84;21221;-75
2022/02/28 07:19:02;;;;;;;12.82;8.43;;;;;;;-0.13;82.38;101171.66;1726838;83;21814;-75
2022/02/28 07:22:06;;;;;;;13.93;7.00;;;;;;;-0.05;81.86;101172.55;1729115;83;21335;-83
2022/02/28 07:25:11;;;;;;;11.05;7.70;;;;;;;-0.01;81.31;101173.63;1734849;82;21172;-75
2022/02/28 07:28:16;;;;;;;13.32;8.08;;;;;;;0.05;81.05;101173.78;1740368;82;21196;-75
2022/02/28 07:31:22;;;;;;;12.93;8.05;;;;;;;0.09;79.83;101171.77;1731752;82;21287;-84
2022/02/28 07:34:27;;;;;;;14.40;8.33;;;;;;;0.10;79.67;101173.52;1727125;82;21286;-83
2022/02/28 07:37:35;;;;;;;13.70;9.00;;;;;;;0.10;79.20;101173.04;1728766;82;21892;-77
2022/02/28 07:40:40;;;;;;;15.98;9.00;;;;;;;0.12;79.08;101167.08;1744552;82;21247;-83
2022/02/28 07:43:47;;;;;;;16.40;9.73;;;;;;;0.13;78.74;101166.12;1677393;85;21283;-83
2022/02/28 07:46:53;;;;;;;14.93;9.28;;;;;;;0.15;78.67;101156.16;1671149;85;21336;-84
2022/02/28 07:49:59;;;;;;;12.88;7.50;;;;;;;0.21;79.04;101158.47;1647047;86;21810;-76
2022/02/28 07:53:05;;;;;;;11.48;8.15;;;;;;;0.32;78.75;101152.94;1645896;87;21278;-76
2022/02/28 07:56:10;;;;;;;14.20;8.30;;;;;;;0.31;77.56;101153.91;1654518;85;21295;-81
2022/02/28 07:59:15;;;;;;;14.33;7.97;;;;;;;0.26;77.56;101160.89;1610391;88;21224;-85
2022/02/28 08:02:21;;;;;;;10.48;7.85;;;;;;;0.24;77.24;101155.61;1621120;87;21888;-77
2022/02/28 08:05:26;;;;;;;12.50;7.78;;;;;;;0.25;77.07;101151.09;1608438;89;21256;-75
2022/02/28 08:08:32;;;;;;;14.20;7.45;;;;;;;0.32;78.07;101156.97;1608109;88;21379;-76
2022/02/28 08:11:39;;;;;;;16.02;7.15;;;;;;;0.40;76.54;101157.39;1619145;88;21350;-75
2022/02/28 08:14:45;;;;;;;12.33;8.08;;;;;;;0.47;77.10;101146.19;1594993;88;21857;-82
2022/02/28 08:17:51;;;;;;;15.80;8.20;;;;;;;0.56;76.69;101139.36;1607905;87;21411;-83
2022/02/28 08:20:57;;;;;;;13.93;8.50;;;;;;;0.66;76.38;101145.05;1585280;88;21220;-84
2022/02/28 08:24:02;;;;;;;12.68;8.10;;;;;;;0.70;76.51;101145.27;1609086;88;21428;-76
2022/02/28 08:27:08;;;;;;;13.45;8.55;;;;;;;0.78;76.77;101142.11;1591916;88;21371;-77
2022/02/28 08:30:15;;;;;;;16.52;8.40;;;;;;;0.87;76.64;101144.25;1616020;87;21656;-84
2022/02/28 08:33:21;;;;;;;11.53;7.70;;;;;;;0.99;76.63;101138.98;1611228;88;21307;-84
2022/02/28 08:36:26;;;;;;;12.15;7.30;;;;;;;1.09;76.49;101140.62;1610866;88;21232;-84
2022/02/28 08:39:32;;;;;;;14.03;8.30;;;;;;;1.14;75.37;101130.42;1615946;88;21377;-76
2022/02/28 08:42:38;;;;;;;14.50;7.72;;;;;;;1.18;75.06;101141.39;1596668;88;21892;-82
2022/02/28 08:45:43;;;;;;;20.05;8.35;;;;;;;1.25;74.78;101141.38;1613913;88;21308;-76
2022/02/28 08:48:50;;;;;;;9.90;7.03;;;;;;;1.30;74.79;101155.05;1640147;87;21331;-76
2022/02/28 08:51:56;;;;;;;11.97;6.80;;;;;;;1.37;74.56;101144.28;1614614;88;21224;-76
2022/02/28 08:55:04;;;;;;;14.50;8.75;;;;;;;1.38;73.81;101134.74;1623521;87;21264;-76
2022/02/28 08:58:10;;;;;;;14.85;7.55;;;;;;;1.32;74.03;101138.28;1641759;86;21794;-84
2022/02/28 09:01:16;;;;;;;12.00;7.55;;;;;;;1.28;73.58;101128.20;1618982;88;21209;-77
2022/02/28 09:04:22;;;;;;;10.78;7.10;;;;;;;1.23;73.68;101131.19;1637199;87;21169;-75
2022/02/28 09:07:29;;;;;;;10.53;6.62;;;;;;;1.25;74.07;101123.86;1619252;88;21233;-75
2022/02/28 09:10:34;;;;;;;10.90;6.62;;;;;;;1.29;73.29;101127.23;1639972;87;21702;-75
2022/02/28 09:13:40;;;;;;;11.57;6.75;;;;;;;1.34;73.47;101124.25;1612769;88;21363;-83
2022/02/28 09:16:46;;;;;;;13.85;7.65;;;;;;;1.46;74.17;101122.13;1634323;87;21228;-77
2022/02/28 09:19:52;;;;;;;9.68;6.58;;;;;;;1.62;73.47;101133.66;1620664;88;21755;-77
2022/02/28 09:22:57;;;;;;;10.65;6.17;;;;;;;1.78;73.56;101133.02;1644006;86;21212;-77
2022/02/28 09:26:05;;;;;;;19.35;6.90;;;;;;;1.96;71.92;101135.49;1618784;88;21217;-76
2022/02/28 09:29:11;;;;;;;9.93;6.12;;;;;;;2.02;71.51;101131.92;1643964;87;21382;-82
2022/02/28 09:32:17;;;;;;;9.20;6.40;;;;;;;2.13;71.97;101138.44;1619611;87;21394;-83
2022/02/28 09:35:24;;;;;;;11.03;6.83;;;;;;;2.25;70.52;101134.90;1645548;87;21315;-79
2022/02/28 09:38:25;;;;;;;11.55;6.30;;;;;;;2.17;70.10;101142.67;1617503;87;21391;-76
2022/02/28 09:41:31;;;;;;;11.83;6.27;;;;;;;2.09;70.04;101132.37;1644276;87;21339;-83
2022/02/28 09:44:54;;;;;;;10.45;6.05;;;;;;;2.05;69.99;101137.09;1621894;88;21780;-83
2022/02/28 09:48:14;;;;;;;10.00;5.70;;;;;;;2.15;70.77;101128.39;1622161;87;21355;-83
2022/02/28 09:51:36;;;;;;;8.05;5.62;;;;;;;2.26;70.35;101120.46;1653564;87;21330;-83
2022/02/28 09:54:42;;;;;;;7.78;4.92;;;;;;;2.32;69.99;101120.03;1622930;88;21241;-76
2022/02/28 09:58:05;;;;;;;12.58;5.70;;;;;;;2.36;69.87;101123.40;1621484;87;21224;-84
2022/02/28 10:01:12;;;;;;;8.28;5.75;;;;;;;2.30;69.31;101127.35;1651904;87;21295;-76
2022/02/28 10:04:20;;;;;;;11.00;5.75;;;;;;;2.28;69.87;101118.02;1621676;88;21328;-75
2022/02/28 10:07:28;;;;;;;11.30;6.30;;;;;;;2.26;69.58;101117.76;1597641;88;21403;-76
2022/02/28 10:10:37;;;;;;;12.03;6.25;;;;;;;2.29;69.66;101112.99;1626942;88;21302;-84
2022/02/28 10:13:43;;;;;;;10.25;6.30;;;;;;;2.21;69.10;101107.27;1610656;88;21351;-84
2022/02/28 10:16:50;;;;;;;8.15;5.58;;;;;;;2.15;70.07;101117.59;1615925;87;21248;-83
2022/02/28 10:19:56;;;;;;;10.30;6.50;;;;;;;2.11;69.72;101118.27;1624086;88;21209;-83
2022/02/28 10:23:08;;;;;;;13.00;5.62;;;;;;;2.01;70.01;101111.77;1652912;85;21260;-82
2022/02/28 10:26:16;;;;;;;10.05;6.15;;;;;;;1.97;71.33;101104.34;1622753;88;21245;-76
2022/02/28 10:29:29;;;;;;;8.43;5.95;;;;;;;2.08;71.79;101100.09;1630076;87;21255;-76
2022/02/28 10:32:58;;;;;;;9.25;5.87;;;;;;;2.21;70.48;101104.57;1620303;88;21344;-84
2022/02/28 10:36:24;;;;;;;9.58;6.40;;;;;;;2.22;70.65;101102.25;1649180;85;21177;-76
2022/02/28 10:39:44;;;;;;;7.65;5.80;;;;;;;2.19;70.87;101098.39;1620453;88;21343;-76
2022/02/28 10:42:55;;;;;;;10.03;5.78;;;;;;;2.16;70.81;101108.03;1652024;87;21808;-83
2022/02/28 10:45:59;;;;;;;;;;;;;;;2.11;70.83;101106.13;1626564;87;21351;-82
2022/02/28 10:49:09;;;;;;;8.60;5.50;;;;;;;2.10;70.94;101101.70;1652771;87;20667;-82
2022/02/28 10:52:15;;;;;;;9.73;6.12;;;;;;;2.06;71.00;101098.83;1622736;88;21391;-74
2022/02/28 10:55:21;;;;;;;11.43;6.58;;;;;;;1.95;71.08;101114.87;1653063;87;21698;-83
2022/02/28 10:58:30;;;;;;;10.95;6.72;;;;;;;1.75;71.54;101129.20;1624642;87;21397;-76
2022/02/28 11:01:42;;;;;;;9.68;6.37;;;;;;;1.50;72.59;101107.46;1626109;87;21373;-83
2022/02/28 11:04:49;;;;;;;10.05;6.35;;;;;;;1.39;73.21;101114.04;1584903;88;21776;-76
2022/02/28 11:07:59;;;;;;;7.47;5.20;;;;;;;1.29;72.78;101109.72;1645040;85;21343;-83
2022/02/28 11:11:08;;;;;;;;;;;;;;;1.11;72.87;101103.66;1614301;88;21357;-83
2022/02/28 11:14:15;;;;;;;9.60;5.70;;;;;;;0.96;73.79;101108.66;1647387;87;20685;-76
2022/02/28 11:17:23;;;;;;;8.50;5.53;;;;;;;0.88;74.24;101102.39;1618932;87;21324;-83
2022/02/28 11:20:29;;;;;;;7.45;5.65;;;;;;;0.86;73.64;101103.47;1641435;87;21900;-81
2022/02/28 11:23:34;;;;;;;11.80;5.95;;;;;;;0.83;74.26;101096.91;1617538;88;21794;-84
2022/02/28 11:26:38;;;;;;;8.40;6.35;;;;;;;0.86;75.17;101103.47;1648374;87;21298;-76
2022/02/28 11:29:43;;;;;;;7.87;5.90;;;;;;;0.87;74.63;101099.80;1617496;88;21881;-76
2022/02/28 11:32:48;;;;;;;8.38;6.03;;;;;;;0.75;74.41;101102.30;1649807;85;21315;-83
2022/02/28 11:35:58;;;;;;;11.97;6.87;;;;;;;0.68;75.37;101102.28;1650479;87;21189;-76
2022/02/28 11:39:18;;;;;;;7.55;6.00;;;;;;;0.68;75.56;101110.36;1624933;88;21299;-84
2022/02/28 11:42:23;;;;;;;11.10;5.25;;;;;;;0.64;75.28;101094.00;1630244;86;21322;-77
2022/02/28 11:45:29;;;;;;;6.20;5.10;;;;;;;0.60;76.11;101103.70;1634648;87;21230;-74
2022/02/28 11:48:50;;;;;;;7.60;5.30;;;;;;;0.57;76.18;101091.80;1634572;87;21195;-74
2022/02/28 11:51:56;;;;;;;8.95;5.72;;;;;;;0.55;76.27;101099.08;1649840;85;21346;-75
2022/02/28 11:55:10;;;;;;;8.93;6.15;;;;;;;0.48;76.56;101102.16;1650610;87;21295;-74
2022/02/28 11:58:22;;;;;;;10.15;6.20;;;;;;;0.40;76.78;101088.77;1632762;87;21200;-82
2022/02/28 12:01:49;;;;;;;9.73;5.78;;;;;;;0.38;77.22;101109.53;1632601;88;21363;-81
2022/02/28 12:04:55;;;;;;;8.70;5.75;;;;;;;0.35;77.01;101095.77;1646654;86;21315;-74
2022/02/28 12:08:01;;;;;;;7.08;5.25;;;;;;;0.30;76.91;101095.66;1624901;88;21723;-77
2022/02/28 12:11:28;;;;;;;7.65;5.47;;;;;;;0.24;76.95;101088.83;1620656;87;21947;-81
2022/02/28 12:14:32;;;;;;;12.50;5.75;;;;;;;0.21;77.20;101083.13;1602359;88;21213;-83
2022/02/28 12:17:48;;;;;;;8.58;6.05;;;;;;;0.19;77.85;101081.03;1615273;88;21243;-84
2022/02/28 12:21:14;;;;;;;8.28;5.25;;;;;;;0.24;77.94;101075.38;1607190;89;21382;-84
2022/02/28 12:24:21;;;;;;;10.48;6.25;;;;;;;0.24;77.54;101088.34;1608437;89;21215;-76
2022/02/28 12:27:31;;;;;;;10.50;6.47;;;;;;;0.19;77.42;101072.95;1623363;88;21384;-75
2022/02/28 12:30:48;;;;;;;8.90;6.40;;;;;;;0.11;77.77;101069.84;1606981;88;21360;-83
2022/02/28 12:34:00;;;;;;;7.80;5.50;;;;;;;0.08;77.66;101075.88;1631308;88;21577;-76
2022/02/28 12:37:06;;;;;;;16.20;6.22;;;;;;;-0.01;78.12;101081.31;1657255;85;21299;-75
2022/02/28 12:40:14;;;;;;;8.33;6.03;;;;;;;-0.06;78.92;101071.31;1624463;88;21940;-81
2022/02/28 12:43:27;;;;;;;8.08;5.78;;;;;;;-0.04;79.48;101077.00;1650166;85;21261;-82
2022/02/28 12:46:42;;;;;;;7.35;5.65;;;;;;;0.02;79.25;101069.52;1631003;88;21965;-76
2022/02/28 12:49:46;;;;;;;7.65;5.67;;;;;;;0.02;79.12;101070.39;1643229;87;21747;-76
2022/02/28 12:53:00;;;;;;;8.58;5.58;;;;;;;0.03;79.66;101069.91;1618986;88;22227;-76
2022/02/28 12:56:13;;;;;;;7.78;5.65;;;;;;;0.01;79.42;101075.87;1621467;88;21867;-83
2022/02/28 12:59:17;;;;;;;9.58;5.60;;;;;;;-0.07;79.59;101069.58;1614579;88;21805;-82
2022/02/28 13:02:28;;;;;;;8.38;5.33;;;;;;;-0.12;79.73;101079.75;1597220;88;21697;-84
2022/02/28 13:05:31;;;;;;;7.10;5.50;;;;;;;-0.14;79.90;101078.95;1637236;85;21315;-75
2022/02/28 13:08:37;;;;;;;9.35;6.08;;;;;;;-0.15;79.85;101071.36;1619806;88;21359;-83
2022/02/28 13:11:53;;;;;;;8.08;5.92;;;;;;;-0.16;80.41;101066.95;1635994;87;21355;-83
2022/02/28 13:14:58;;;;;;;9.75;5.33;;;;;;;-0.12;80.85;101067.64;1634655;87;21308;-82
2022/02/28 13:18:04;;;;;;;6.95;5.42;;;;;;;-0.07;80.45;101079.00;1597458;88;21334;-75
2022/02/28 13:21:09;;;;;;;7.05;4.90;;;;;;;-0.12;79.54;101076.58;1635796;87;21232;-75
2022/02/28 13:24:20;;;;;;;6.58;4.65;;;;;;;-0.17;79.43;101084.53;1611962;88;21744;-83
2022/02/28 13:27:25;;;;;;;6.35;5.03;;;;;;;-0.20;79.76;101068.56;1603415;88;21358;-83
2022/02/28 13:30:33;;;;;;;14.70;5.30;;;;;;;-0.18;80.21;101071.56;1633462;88;21312;-75
2022/02/28 13:33:37;;;;;;;6.47;5.05;;;;;;;-0.14;80.33;101077.61;1619210;88;21314;-82
2022/02/28 13:36:50;;;;;;;10.55;5.58;;;;;;;-0.10;79.84;101084.06;1634117;88;21386;-82
2022/02/28 13:39:58;;;;;;;9.03;5.90;;;;;;;-0.11;79.94;101079.64;1606481;89;21249;-83
2022/02/28 13:43:05;;;;;;;7.00;5.78;;;;;;;-0.12;80.25;101072.54;1630494;87;21345;-76
2022/02/28 13:46:11;;;;;;;7.62;5.72;;;;;;;-0.12;80.41;101073.02;1608098;89;21924;-76
2022/02/28 13:49:19;;;;;;;7.12;5.92;;;;;;;-0.11;80.65;101078.78;1595944;89;21423;-76
2022/02/28 13:52:29;;;;;;;9.48;6.08;;;;;;;-0.10;80.66;101082.72;1605842;88;21375;-83
2022/02/28 13:55:33;;;;;;;9.80;5.75;;;;;;;-0.08;80.66;101077.27;1617618;88;21929;-76
2022/02/28 13:58:39;;;;;;;10.10;5.75;;;;;;;-0.04;80.86;101088.23;1585835;88;21839;-83
2022/02/28 14:01:59;;;;;;;8.95;5.97;;;;;;;-0.01;80.69;101080.83;1613716;88;21752;-83
2022/02/28 14:05:10;;;;;;;7.87;5.97;;;;;;;-0.01;80.49;101085.34;1608821;88;21576;-83
2022/02/28 14:08:21;;;;;;;7.55;5.60;;;;;;;-0.03;80.59;101080.55;1610014;87;21304;-84
2022/02/28 14:11:39;;;;;;;9.98;5.33;;;;;;;-0.03;80.79;101084.59;1612781;87;21312;-83
2022/02/28 14:14:46;;;;;;;7.78;5.50;;;;;;;-0.01;80.81;101079.97;1610841;88;21384;-84
2022/02/28 14:18:04;;;;;;;9.25;6.35;;;;;;;-0.01;81.13;101079.97;1608477;87;21315;-83
2022/02/28 14:21:15;;;;;;;9.55;6.60;;;;;;;0.00;81.40;101076.35;1612235;88;21320;-76
2022/02/28 14:24:24;;;;;;;10.93;6.62;;;;;;;0.01;81.47;101088.84;1593297;88;21796;-83
2022/02/28 14:27:51;;;;;;;8.63;6.37;;;;;;;0.02;81.98;101093.73;1627741;88;21819;-76
2022/02/28 14:31:15;;;;;;;8.58;6.00;;;;;;;0.00;81.92;101077.70;1625955;88;21749;-80